Forside
METAR-TAF:

METAR-TAF

Lufthavne :

Whiteside County Airport (Jos. H. Bittorf Field)

Sterling / Rock Falls, Illinois, USA

Breddekreds: 41-45N, længdekreds: 089-40W, højde: 197 m

Aktuelle vejr

Denne rapport blev lavet for 51 minutter siden, kl. 09:56 UTC
Vind stille
Temperatur 10°C
Fugtighed 76%
Tryk 1015 hPa
Sigt: 16.1 km
skyfri

METAR: KSQI 260956Z 00000KT 10SM CLR 10/06 A2997 RMK AO2 SLP014 T01000056

Tid: 05:47 (10:47 UTC)


TAF: fraværende

Vejrobservationer og prognoser fra mere end 4000 lufthavne (METAR og TAF).

De gule og røde prikker repræsenterer de meteorologiske stationer.

Flyt musen over at se navnet på stationen.

Så klik over at se vejr observationer og prognoser.

At skifte det kort: Klik på de grønne knapper med et sort kors for at zoome ind; på den grønne knap med en bindestreg for at zoome ud; eller på de grønne pile for tilstødende kort.


METAR-TAF: